createdAt,value
2022-08-14T00:02:27.173Z,4.80
2022-08-14T00:04:55.644Z,4.32
2022-08-14T00:07:23.389Z,4.35
2022-08-14T00:10:01.843Z,4.72
2022-08-14T00:12:48.065Z,4.50
2022-08-14T00:15:43.332Z,4.22
2022-08-14T00:18:30.703Z,4.10
2022-08-14T00:21:05.283Z,4.35
2022-08-14T00:23:42.068Z,4.40
2022-08-14T00:26:21.829Z,4.07
2022-08-14T00:28:52.483Z,3.72
2022-08-14T00:31:34.832Z,4.18
2022-08-14T00:34:36.436Z,4.85
2022-08-14T00:36:59.876Z,4.18
2022-08-14T00:39:29.597Z,3.95
2022-08-14T00:41:58.085Z,4.15
2022-08-14T00:44:31.773Z,4.00
2022-08-14T00:47:03.591Z,4.05
2022-08-14T00:49:38.138Z,3.88
2022-08-14T00:52:17.688Z,3.90
2022-08-14T00:54:58.289Z,4.15
2022-08-14T00:57:31.023Z,4.10
2022-08-14T01:00:00.719Z,4.22
2022-08-14T01:02:31.690Z,3.97
2022-08-14T01:05:07.807Z,4.68
2022-08-14T01:07:47.333Z,4.15
2022-08-14T01:10:22.217Z,4.30
2022-08-14T01:12:50.817Z,4.20
2022-08-14T01:15:31.568Z,4.35
2022-08-14T01:18:27.595Z,4.28
2022-08-14T01:21:09.625Z,3.97
2022-08-14T01:23:47.062Z,4.38
2022-08-14T01:26:23.250Z,4.50
2022-08-14T01:29:05.916Z,4.32
2022-08-14T01:31:55.602Z,5.18
2022-08-14T01:35:17.179Z,4.68
2022-08-14T01:37:14.061Z,5.10
2022-08-14T01:39:44.500Z,4.35
2022-08-14T01:42:31.511Z,4.03
2022-08-14T01:45:00.090Z,4.82
2022-08-14T01:47:27.628Z,5.25
2022-08-14T01:50:07.791Z,4.43
2022-08-14T01:52:58.823Z,4.70
2022-08-14T01:55:32.590Z,5.10
2022-08-14T01:58:20.027Z,4.57
2022-08-14T02:00:55.424Z,4.75
2022-08-14T02:03:30.224Z,4.72
2022-08-14T02:06:03.794Z,5.25
2022-08-14T02:08:52.996Z,4.57
2022-08-14T02:11:25.589Z,5.18
2022-08-14T02:14:07.405Z,4.57
2022-08-14T02:16:40.577Z,4.60
2022-08-14T02:19:16.024Z,4.80
2022-08-14T02:21:50.290Z,4.82
2022-08-14T02:24:39.752Z,5.30
2022-08-14T02:28:22.779Z,4.83
2022-08-14T02:30:02.074Z,4.55
2022-08-14T02:35:18.003Z,4.45
2022-08-14T02:37:50.321Z,4.97
2022-08-14T02:40:19.771Z,4.88
2022-08-14T02:42:54.738Z,4.47
2022-08-14T02:45:33.395Z,5.03
2022-08-14T02:48:10.401Z,4.22
2022-08-14T02:50:55.508Z,4.57
2022-08-14T02:53:23.167Z,4.78
2022-08-14T02:55:50.929Z,4.75
2022-08-14T02:58:30.607Z,5.13
2022-08-14T03:01:01.631Z,4.95
2022-08-14T03:03:31.498Z,5.80
2022-08-14T03:06:00.780Z,5.18
2022-08-14T03:08:32.352Z,5.20
2022-08-14T03:11:09.675Z,5.05
2022-08-14T03:13:44.183Z,4.93
2022-08-14T03:16:20.109Z,4.82
2022-08-14T03:18:59.843Z,5.10
2022-08-14T03:21:30.284Z,5.40
2022-08-14T03:24:09.049Z,5.28
2022-08-14T03:26:50.017Z,5.40
2022-08-14T03:29:29.536Z,5.65
2022-08-14T03:31:57.703Z,4.75
2022-08-14T03:34:47.859Z,5.65
2022-08-14T03:37:39.446Z,5.03
2022-08-14T03:40:01.747Z,5.53
2022-08-14T03:42:36.116Z,5.28
2022-08-14T03:45:25.467Z,5.50
2022-08-14T03:47:58.918Z,5.55
2022-08-14T03:50:31.695Z,5.75
2022-08-14T03:53:02.553Z,5.00
2022-08-14T03:55:31.550Z,5.70
2022-08-14T03:58:02.235Z,5.68
2022-08-14T04:00:43.934Z,5.35
2022-08-14T04:03:18.245Z,5.85
2022-08-14T04:05:51.102Z,5.53
2022-08-14T04:08:22.841Z,5.30
2022-08-14T04:11:00.976Z,5.90
2022-08-14T04:13:35.552Z,6.43
2022-08-14T04:16:13.070Z,5.97
2022-08-14T04:18:43.761Z,5.93
2022-08-14T04:21:14.867Z,6.30
2022-08-14T04:23:56.889Z,6.35
2022-08-14T04:26:42.377Z,5.93
2022-08-14T04:29:16.105Z,6.03
2022-08-14T04:33:00.715Z,6.00
2022-08-14T04:34:36.589Z,6.50
2022-08-14T04:37:25.384Z,7.00
2022-08-14T04:40:15.150Z,5.95
2022-08-14T04:43:01.754Z,6.32
2022-08-14T04:45:41.892Z,5.85
2022-08-14T04:48:38.962Z,6.55
2022-08-14T04:51:05.451Z,5.95
2022-08-14T04:53:41.083Z,6.55
2022-08-14T04:56:33.798Z,6.20
2022-08-14T04:59:10.158Z,6.13
2022-08-14T05:01:47.732Z,6.65
2022-08-14T05:04:19.897Z,6.05
2022-08-14T05:06:54.176Z,6.45
2022-08-14T05:09:24.504Z,6.65
2022-08-14T05:11:56.568Z,6.20
2022-08-14T05:14:47.150Z,6.28
2022-08-14T05:17:31.998Z,7.97
2022-08-14T05:21:04.781Z,7.40
2022-08-14T05:22:59.986Z,6.82
2022-08-14T05:25:31.049Z,8.00
2022-08-14T05:28:23.813Z,7.68
2022-08-14T05:30:57.091Z,7.85
2022-08-14T05:33:28.683Z,7.68
2022-08-14T05:36:02.605Z,7.47
2022-08-14T05:38:41.372Z,7.70
2022-08-14T05:43:48.238Z,6.20
2022-08-14T05:48:59.408Z,7.07
2022-08-14T05:51:28.776Z,7.85
2022-08-14T05:54:01.575Z,7.82
2022-08-14T05:56:40.791Z,7.80
2022-08-14T05:59:11.293Z,7.45
2022-08-14T06:01:38.938Z,6.85
2022-08-14T06:04:06.932Z,7.75
2022-08-14T06:06:38.419Z,7.32
2022-08-14T06:09:10.037Z,7.28
2022-08-14T06:11:38.064Z,6.43
2022-08-14T06:14:12.498Z,7.25
2022-08-14T06:16:49.575Z,6.38
2022-08-14T06:19:23.068Z,6.43
2022-08-14T06:21:58.499Z,7.15
2022-08-14T06:24:30.669Z,6.88
2022-08-14T06:27:06.333Z,7.13
2022-08-14T06:29:38.638Z,6.50
2022-08-14T06:32:38.478Z,6.03
2022-08-14T06:35:09.215Z,6.47
2022-08-14T06:37:47.910Z,6.57
2022-08-14T06:40:27.045Z,6.18
2022-08-14T06:43:00.101Z,6.15
2022-08-14T06:45:34.980Z,5.90
2022-08-14T06:48:06.169Z,6.10
2022-08-14T06:50:34.386Z,6.32
2022-08-14T06:53:02.359Z,5.85
2022-08-14T06:55:30.885Z,5.97
2022-08-14T06:57:59.416Z,6.18
2022-08-14T07:00:31.552Z,5.95
2022-08-14T07:03:19.478Z,6.15
2022-08-14T07:05:57.661Z,6.07
2022-08-14T07:08:31.360Z,6.22
2022-08-14T07:11:04.458Z,6.55
2022-08-14T07:13:33.638Z,6.85
2022-08-14T07:16:05.600Z,6.47
2022-08-14T07:18:35.545Z,6.35
2022-08-14T07:21:05.631Z,6.50
2022-08-14T07:23:40.142Z,6.03
2022-08-14T07:26:13.802Z,6.05
2022-08-14T07:31:12.729Z,7.25
2022-08-14T07:33:45.499Z,6.90
2022-08-14T07:36:27.189Z,7.20
2022-08-14T07:39:00.319Z,6.45
2022-08-14T07:41:31.411Z,6.50
2022-08-14T07:44:32.140Z,7.20
2022-08-14T07:46:51.299Z,6.57
2022-08-14T07:49:20.208Z,6.35
2022-08-14T07:51:49.661Z,6.63
2022-08-14T07:54:23.490Z,6.78
2022-08-14T07:57:06.400Z,6.95
2022-08-14T07:59:44.301Z,7.10
2022-08-14T08:02:17.046Z,7.18
2022-08-14T08:04:53.134Z,6.93
2022-08-14T08:07:23.565Z,6.43
2022-08-14T08:09:56.242Z,6.43
2022-08-14T08:12:29.632Z,7.07
2022-08-14T08:15:03.167Z,7.20
2022-08-14T08:17:42.658Z,7.22
2022-08-14T08:20:27.778Z,7.03
2022-08-14T08:23:06.021Z,6.57
2022-08-14T08:25:40.898Z,7.20
2022-08-14T08:28:22.039Z,6.88
2022-08-14T08:30:56.571Z,6.18
2022-08-14T08:33:32.067Z,6.80
2022-08-14T08:36:07.972Z,6.05
2022-08-14T08:39:18.871Z,6.28
2022-08-14T08:41:24.970Z,6.60
2022-08-14T08:44:05.320Z,6.85
2022-08-14T08:46:35.759Z,6.13
2022-08-14T08:49:04.512Z,7.07
2022-08-14T08:51:42.805Z,6.75
2022-08-14T08:54:18.343Z,6.18
2022-08-14T08:56:52.059Z,6.60
2022-08-14T08:59:31.614Z,6.45
2022-08-14T09:02:05.447Z,7.40
2022-08-14T09:04:45.592Z,6.32
2022-08-14T09:07:27.822Z,5.82
2022-08-14T09:09:59.039Z,5.95
2022-08-14T09:12:43.064Z,5.50
2022-08-14T09:15:14.670Z,6.40
2022-08-14T09:17:44.181Z,5.68
2022-08-14T09:20:19.333Z,5.68
2022-08-14T09:22:55.921Z,5.20
2022-08-14T09:25:58.632Z,6.00
2022-08-14T09:28:12.871Z,5.72
2022-08-14T09:30:54.595Z,5.75
2022-08-14T09:33:32.350Z,5.72
2022-08-14T09:36:26.931Z,5.97
2022-08-14T09:39:45.952Z,6.50
2022-08-14T09:42:36.599Z,5.40
2022-08-14T09:45:16.717Z,6.75
2022-08-14T09:47:56.949Z,5.97
2022-08-14T09:50:34.003Z,6.25
2022-08-14T09:53:06.045Z,6.53
2022-08-14T09:55:58.737Z,6.05
2022-08-14T09:58:45.168Z,6.38
2022-08-14T10:01:14.922Z,6.40
2022-08-14T10:03:58.478Z,5.82
2022-08-14T10:06:29.805Z,5.82
2022-08-14T10:09:12.135Z,5.63
2022-08-14T10:11:58.737Z,5.85
2022-08-14T10:14:36.031Z,6.25
2022-08-14T10:17:07.186Z,5.10
2022-08-14T10:19:48.603Z,5.93
2022-08-14T10:23:12.581Z,5.95
2022-08-14T10:25:15.432Z,5.95
2022-08-14T10:27:46.811Z,5.35
2022-08-14T10:30:22.478Z,5.72
2022-08-14T10:32:51.530Z,5.68
2022-08-14T10:35:23.010Z,6.03
2022-08-14T10:37:53.507Z,6.13
2022-08-14T10:40:44.303Z,5.95
2022-08-14T10:43:26.352Z,5.45
2022-08-14T10:46:59.253Z,6.20
2022-08-14T10:49:04.084Z,5.40
2022-08-14T10:51:41.896Z,5.75
2022-08-14T10:54:16.801Z,5.45
2022-08-14T10:57:20.880Z,5.18
2022-08-14T11:00:00.988Z,5.30
2022-08-14T11:02:54.218Z,5.25
2022-08-14T11:05:26.652Z,5.43
2022-08-14T11:08:01.245Z,5.32
2022-08-14T11:11:00.309Z,4.78
2022-08-14T11:13:31.161Z,4.73
2022-08-14T11:16:01.921Z,4.78
2022-08-14T11:18:36.038Z,5.10
2022-08-14T11:21:09.577Z,5.63
2022-08-14T11:23:41.169Z,4.70
2022-08-14T11:26:14.395Z,5.28
2022-08-14T11:28:49.607Z,5.70
2022-08-14T11:31:24.221Z,5.82
2022-08-14T11:33:58.395Z,4.88
2022-08-14T11:36:35.171Z,5.80
2022-08-14T11:39:35.120Z,4.80
2022-08-14T11:42:07.646Z,5.25
2022-08-14T11:47:35.088Z,5.30
2022-08-14T11:50:33.677Z,4.80
2022-08-14T11:53:08.022Z,4.82
2022-08-14T11:55:39.738Z,4.32
2022-08-14T11:58:11.330Z,4.45
2022-08-14T12:00:52.549Z,4.45
2022-08-14T12:03:37.743Z,5.15
2022-08-14T12:06:29.248Z,4.65
2022-08-14T12:09:04.114Z,4.68
2022-08-14T12:11:44.143Z,4.40
2022-08-14T12:14:30.118Z,4.90
2022-08-14T12:17:11.767Z,4.28
2022-08-14T12:19:51.274Z,4.88
2022-08-14T12:22:33.943Z,4.30
2022-08-14T12:25:10.049Z,4.80
2022-08-14T12:27:53.567Z,4.40
2022-08-14T12:30:43.174Z,4.85
2022-08-14T12:33:32.974Z,5.00
2022-08-14T12:36:10.563Z,4.47
2022-08-14T12:38:43.397Z,4.90
2022-08-14T12:41:24.144Z,4.80
2022-08-14T12:44:04.604Z,4.47
2022-08-14T12:46:36.507Z,4.68
2022-08-14T12:49:16.555Z,4.80
2022-08-14T12:51:56.599Z,4.72
2022-08-14T12:54:28.121Z,4.78
2022-08-14T12:57:20.407Z,4.80
2022-08-14T12:59:50.670Z,4.72
2022-08-14T13:02:35.988Z,4.32
2022-08-14T13:05:04.683Z,4.47
2022-08-14T13:07:35.559Z,4.25
2022-08-14T13:10:47.316Z,4.35
2022-08-14T13:13:13.612Z,4.13
2022-08-14T13:15:48.416Z,4.57
2022-08-14T13:18:28.273Z,4.28
2022-08-14T13:21:02.098Z,4.65
2022-08-14T13:23:36.457Z,3.90
2022-08-14T13:26:08.812Z,4.63
2022-08-14T13:29:02.161Z,3.97
2022-08-14T13:31:34.415Z,4.07
2022-08-14T13:34:04.353Z,4.22
2022-08-14T13:36:54.343Z,4.60
2022-08-14T13:39:23.952Z,5.30
2022-08-14T13:41:55.389Z,4.63
2022-08-14T13:44:28.991Z,3.85
2022-08-14T13:46:58.560Z,4.65
2022-08-14T13:49:26.433Z,4.35
2022-08-14T13:52:02.199Z,5.13
2022-08-14T13:54:34.533Z,4.47
2022-08-14T13:57:05.152Z,4.30
2022-08-14T13:59:39.251Z,4.80
2022-08-14T14:02:10.177Z,5.40
2022-08-14T14:04:49.545Z,4.00
2022-08-14T14:07:23.602Z,4.07
2022-08-14T14:09:56.398Z,4.90
2022-08-14T14:12:38.302Z,4.43
2022-08-14T14:15:17.585Z,4.20
2022-08-14T14:17:48.072Z,4.10
2022-08-14T14:20:34.676Z,4.22
2022-08-14T14:23:11.699Z,4.53
2022-08-14T14:25:51.292Z,4.07
2022-08-14T14:28:32.525Z,3.45
2022-08-14T14:31:06.102Z,3.85
2022-08-14T14:33:48.995Z,3.88
2022-08-14T14:36:26.707Z,3.60
2022-08-14T14:38:56.422Z,3.73
2022-08-14T14:41:27.181Z,3.40
2022-08-14T14:44:09.059Z,3.80
2022-08-14T14:46:42.028Z,3.58
2022-08-14T14:49:15.073Z,3.70
2022-08-14T14:51:46.835Z,3.58
2022-08-14T14:54:30.986Z,3.53
2022-08-14T14:57:02.439Z,3.47
2022-08-14T14:59:35.799Z,3.53
2022-08-14T15:02:08.019Z,3.80
2022-08-14T15:04:39.107Z,3.63
2022-08-14T15:07:12.347Z,3.72
2022-08-14T15:09:41.119Z,3.80
2022-08-14T15:12:34.403Z,4.10
2022-08-14T15:15:08.809Z,4.03
2022-08-14T15:17:41.466Z,3.70
2022-08-14T15:20:16.876Z,3.50
2022-08-14T15:22:51.256Z,3.60
2022-08-14T15:25:21.868Z,3.58
2022-08-14T15:27:54.655Z,4.03
2022-08-14T15:30:24.355Z,3.40
2022-08-14T15:33:00.077Z,3.33
2022-08-14T15:35:29.701Z,3.50
2022-08-14T15:38:08.083Z,3.75
2022-08-14T15:40:41.102Z,3.33
2022-08-14T15:43:12.792Z,3.60
2022-08-14T15:45:42.078Z,3.90
2022-08-14T15:48:12.623Z,3.28
2022-08-14T15:50:50.898Z,4.20
2022-08-14T15:53:22.616Z,3.40
2022-08-14T15:55:54.898Z,3.42
2022-08-14T15:58:27.223Z,3.65
2022-08-14T16:01:26.468Z,3.17
2022-08-14T16:04:01.603Z,3.88
2022-08-14T16:06:33.554Z,4.53
2022-08-14T16:09:10.705Z,3.80
2022-08-14T16:11:47.397Z,3.83
2022-08-14T16:14:22.029Z,3.95
2022-08-14T16:17:00.069Z,3.92
2022-08-14T16:19:44.021Z,4.25
2022-08-14T16:22:58.122Z,4.03
2022-08-14T16:25:04.390Z,4.05
2022-08-14T16:27:40.777Z,4.20
2022-08-14T16:30:25.037Z,4.15
2022-08-14T16:32:59.287Z,4.28
2022-08-14T16:35:55.792Z,4.63
2022-08-14T16:38:45.985Z,4.43
2022-08-14T16:41:27.421Z,4.68
2022-08-14T16:44:05.238Z,4.13
2022-08-14T16:46:44.687Z,4.25
2022-08-14T16:49:17.505Z,4.20
2022-08-14T16:51:46.695Z,4.47
2022-08-14T16:54:35.003Z,4.30
2022-08-14T16:57:23.925Z,4.25
2022-08-14T16:59:59.840Z,4.93
2022-08-14T17:02:39.063Z,4.53
2022-08-14T17:05:27.076Z,4.93
2022-08-14T17:08:32.343Z,4.13
2022-08-14T17:10:56.635Z,4.07
2022-08-14T17:13:57.728Z,4.53
2022-08-14T17:16:24.980Z,4.03
2022-08-14T17:19:00.769Z,4.25
2022-08-14T17:21:38.383Z,4.18
2022-08-14T17:24:57.290Z,4.82
2022-08-14T17:27:05.176Z,5.05
2022-08-14T17:29:54.455Z,5.03
2022-08-14T17:32:55.444Z,4.97
2022-08-14T17:35:58.159Z,4.45
2022-08-14T17:38:33.669Z,5.60
2022-08-14T17:41:24.033Z,4.75
2022-08-14T17:44:20.204Z,4.45
2022-08-14T17:47:07.166Z,4.10
2022-08-14T17:49:45.285Z,4.90
2022-08-14T17:52:33.827Z,4.95
2022-08-14T17:55:07.665Z,4.50
2022-08-14T17:57:40.921Z,4.78
2022-08-14T18:00:15.499Z,4.63
2022-08-14T18:02:50.798Z,4.22
2022-08-14T18:05:22.854Z,4.75
2022-08-14T18:08:32.319Z,4.60
2022-08-14T18:10:55.548Z,4.45
2022-08-14T18:13:49.829Z,4.95
2022-08-14T18:16:19.638Z,4.65
2022-08-14T18:18:51.092Z,4.88
2022-08-14T18:24:28.392Z,4.63
2022-08-14T18:27:09.310Z,4.60
2022-08-14T18:29:54.897Z,5.05
2022-08-14T18:32:32.265Z,4.80
2022-08-14T18:35:13.158Z,4.93
2022-08-14T18:37:55.578Z,5.15
2022-08-14T18:40:34.986Z,5.47
2022-08-14T18:43:06.021Z,5.10
2022-08-14T18:45:41.306Z,4.80
2022-08-14T18:48:33.208Z,5.50
2022-08-14T18:51:45.724Z,4.75
2022-08-14T18:54:34.319Z,5.05
2022-08-14T18:57:08.897Z,5.47
2022-08-14T18:59:43.370Z,5.20
2022-08-14T19:02:42.319Z,5.38
2022-08-14T19:05:11.363Z,5.53
2022-08-14T19:07:40.787Z,5.35
2022-08-14T19:10:17.050Z,5.50
2022-08-14T19:12:53.880Z,5.75
2022-08-14T19:15:56.538Z,5.53
2022-08-14T19:18:29.455Z,5.28
2022-08-14T19:21:13.059Z,5.78
2022-08-14T19:23:44.011Z,5.82
2022-08-14T19:26:36.632Z,5.40
2022-08-14T19:29:37.955Z,6.10
2022-08-14T19:32:41.054Z,5.38
2022-08-14T19:35:24.434Z,5.53
2022-08-14T19:37:57.400Z,5.72
2022-08-14T19:40:39.412Z,5.60
2022-08-14T19:43:10.970Z,5.68
2022-08-14T19:45:39.571Z,5.65
2022-08-14T19:48:15.648Z,5.35
2022-08-14T19:50:46.450Z,5.57
2022-08-14T19:53:17.220Z,5.72
2022-08-14T19:56:02.439Z,5.30
2022-08-14T19:58:54.449Z,5.30
2022-08-14T20:01:36.935Z,5.13
2022-08-14T20:04:45.332Z,5.35
2022-08-14T20:07:01.859Z,4.85
2022-08-14T20:11:12.638Z,4.80
2022-08-14T20:12:36.396Z,4.95
2022-08-14T20:15:18.180Z,5.00
2022-08-14T20:17:52.915Z,5.18
2022-08-14T20:20:32.216Z,4.90
2022-08-14T20:23:10.966Z,5.03
2022-08-14T20:25:56.418Z,5.20
2022-08-14T20:28:35.694Z,4.10
2022-08-14T20:31:18.849Z,4.85
2022-08-14T20:34:08.012Z,4.93
2022-08-14T20:37:09.622Z,4.93
2022-08-14T20:39:54.626Z,5.00
2022-08-14T20:42:43.805Z,5.15
2022-08-14T20:45:24.687Z,5.32
2022-08-14T20:48:07.295Z,5.57
2022-08-14T20:50:44.833Z,4.88
2022-08-14T20:53:35.855Z,5.53
2022-08-14T20:56:28.409Z,5.28
2022-08-14T20:58:57.997Z,4.82
2022-08-14T21:01:32.483Z,5.20
2022-08-14T21:04:05.113Z,5.88
2022-08-14T21:07:23.920Z,5.40
2022-08-14T21:10:05.108Z,5.78
2022-08-14T21:12:35.014Z,5.55
2022-08-14T21:15:10.157Z,5.57
2022-08-14T21:17:43.376Z,5.35
2022-08-14T21:20:26.304Z,5.60
2022-08-14T21:23:00.508Z,5.05
2022-08-14T21:25:31.902Z,5.22
2022-08-14T21:30:51.767Z,5.75
2022-08-14T21:33:24.860Z,5.15
2022-08-14T21:35:55.993Z,4.97
2022-08-14T21:38:33.558Z,5.07
2022-08-14T21:41:43.498Z,5.55
2022-08-14T21:44:18.189Z,4.18
2022-08-14T21:46:54.320Z,4.68
2022-08-14T21:49:38.288Z,4.47
2022-08-14T21:52:51.490Z,5.13
2022-08-14T21:55:09.598Z,4.82
2022-08-14T21:57:56.283Z,5.13
2022-08-14T22:00:43.580Z,4.85
2022-08-14T22:03:19.472Z,4.68
2022-08-14T22:05:57.633Z,4.93
2022-08-14T22:08:27.367Z,5.30
2022-08-14T22:10:56.810Z,5.25
2022-08-14T22:13:32.141Z,5.20
2022-08-14T22:16:02.244Z,5.60
2022-08-14T22:18:31.189Z,5.13
2022-08-14T22:21:00.621Z,5.35
2022-08-14T22:23:33.712Z,4.95
2022-08-14T22:26:03.379Z,5.25
2022-08-14T22:28:33.004Z,5.10
2022-08-14T22:31:10.907Z,4.93
2022-08-14T22:33:40.352Z,5.15
2022-08-14T22:36:33.702Z,5.07
2022-08-14T22:39:03.307Z,4.88
2022-08-14T22:41:42.173Z,4.97
2022-08-14T22:44:19.880Z,4.80
2022-08-14T22:46:49.556Z,5.18
2022-08-14T22:50:30.726Z,5.68
2022-08-14T22:52:32.681Z,5.50
2022-08-14T22:54:59.873Z,4.90
2022-08-14T22:57:37.732Z,5.35
2022-08-14T23:00:25.438Z,4.65
2022-08-14T23:03:02.861Z,5.45
2022-08-14T23:05:40.155Z,5.03
2022-08-14T23:08:58.020Z,4.82
2022-08-14T23:11:07.116Z,4.68
2022-08-14T23:13:35.239Z,4.90
2022-08-14T23:16:08.650Z,4.68
2022-08-14T23:18:39.101Z,5.03
2022-08-14T23:21:12.087Z,4.85
2022-08-14T23:23:41.498Z,5.15
2022-08-14T23:26:48.304Z,4.82
2022-08-14T23:28:59.185Z,5.25
2022-08-14T23:31:34.516Z,5.22
2022-08-14T23:34:06.577Z,4.93
2022-08-14T23:36:54.629Z,4.88
2022-08-14T23:39:29.949Z,4.80
2022-08-14T23:42:07.605Z,5.30
2022-08-14T23:44:38.868Z,4.43
2022-08-14T23:47:12.064Z,4.20
2022-08-14T23:50:03.335Z,5.03
2022-08-14T23:52:50.099Z,4.57
2022-08-14T23:55:25.703Z,4.78
2022-08-14T23:57:58.552Z,4.60
